createdAt,value
2023-04-10T00:00:37.000Z,59.38
2023-04-10T00:01:37.000Z,59.65
2023-04-10T00:02:38.000Z,60.09
2023-04-10T00:03:36.000Z,59.90
2023-04-10T00:04:36.000Z,60.06
2023-04-10T00:05:36.000Z,60.01
2023-04-10T00:06:36.000Z,59.96
2023-04-10T00:07:36.000Z,60.01
2023-04-10T00:08:36.000Z,60.25
2023-04-10T00:09:36.000Z,60.16
2023-04-10T00:10:36.000Z,60.04
2023-04-10T00:11:36.000Z,60.53
2023-04-10T00:12:36.000Z,60.64
2023-04-10T00:13:36.000Z,60.71
2023-04-10T00:14:36.000Z,60.54
2023-04-10T00:15:36.000Z,60.47
2023-04-10T00:16:36.000Z,60.96
2023-04-10T00:17:36.000Z,60.78
2023-04-10T00:18:36.000Z,61.12
2023-04-10T00:19:36.000Z,60.94
2023-04-10T00:20:36.000Z,61.15
2023-04-10T00:21:35.000Z,60.69
2023-04-10T00:22:36.000Z,61.03
2023-04-10T00:23:36.000Z,60.71
2023-04-10T00:24:36.000Z,60.97
2023-04-10T00:25:36.000Z,60.92
2023-04-10T00:26:36.000Z,61.02
2023-04-10T00:27:35.000Z,61.24
2023-04-10T00:28:36.000Z,60.99
2023-04-10T00:29:35.000Z,60.85
2023-04-10T00:30:35.000Z,60.65
2023-04-10T00:31:36.000Z,61.13
2023-04-10T00:32:36.000Z,61.11
2023-04-10T00:33:35.000Z,61.14
2023-04-10T00:34:35.000Z,61.30
2023-04-10T00:35:35.000Z,60.78
2023-04-10T00:36:36.000Z,61.00
2023-04-10T00:37:37.000Z,61.22
2023-04-10T00:38:36.000Z,61.13
2023-04-10T00:39:35.000Z,61.20
2023-04-10T00:40:35.000Z,61.06
2023-04-10T00:41:36.000Z,61.21
2023-04-10T00:42:36.000Z,61.49
2023-04-10T00:43:36.000Z,61.20
2023-04-10T00:44:36.000Z,61.39
2023-04-10T00:45:36.000Z,61.26
2023-04-10T00:46:36.000Z,61.37
2023-04-10T00:47:36.000Z,61.25
2023-04-10T00:48:36.000Z,61.48
2023-04-10T00:49:35.000Z,61.65
2023-04-10T00:50:36.000Z,61.93
2023-04-10T00:51:36.000Z,61.58
2023-04-10T00:52:36.000Z,61.60
2023-04-10T00:53:35.000Z,61.42
2023-04-10T00:54:36.000Z,61.34
2023-04-10T00:55:35.000Z,61.49
2023-04-10T00:56:36.000Z,61.75
2023-04-10T00:57:36.000Z,61.67
2023-04-10T00:58:35.000Z,61.44
2023-04-10T00:59:35.000Z,61.64
2023-04-10T01:00:35.000Z,61.61
2023-04-10T01:01:35.000Z,61.28
2023-04-10T01:02:35.000Z,61.39
2023-04-10T01:03:37.000Z,61.34
2023-04-10T01:04:36.000Z,61.63
2023-04-10T01:05:47.000Z,61.64
2023-04-10T01:06:49.000Z,61.38
2023-04-10T01:07:58.000Z,61.42
2023-04-10T01:08:46.000Z,61.28
2023-04-10T01:09:47.000Z,61.68
2023-04-10T01:10:45.000Z,61.64
2023-04-10T01:11:48.000Z,61.70
2023-04-10T01:12:49.000Z,61.64
2023-04-10T01:13:45.000Z,61.31
2023-04-10T01:14:45.000Z,62.12
2023-04-10T01:15:47.000Z,61.83
2023-04-10T01:16:49.000Z,62.35
2023-04-10T01:17:44.000Z,61.95
2023-04-10T01:18:42.000Z,62.52
2023-04-10T01:19:58.000Z,62.19
2023-04-10T01:20:40.000Z,62.20
2023-04-10T01:21:37.000Z,61.72
2023-04-10T01:22:45.000Z,62.36
2023-04-10T01:23:45.000Z,61.76
2023-04-10T01:24:55.000Z,61.48
2023-04-10T01:25:41.000Z,61.63
2023-04-10T01:26:54.000Z,62.24
2023-04-10T01:27:49.000Z,62.10
2023-04-10T01:28:46.000Z,62.01
2023-04-10T01:29:42.000Z,62.01
2023-04-10T01:30:36.000Z,62.16
2023-04-10T01:31:41.000Z,62.33
2023-04-10T01:32:38.000Z,62.10
2023-04-10T01:33:46.000Z,61.92
2023-04-10T01:34:49.000Z,61.79
2023-04-10T01:35:37.000Z,62.00
2023-04-10T01:36:45.000Z,61.92
2023-04-10T01:37:41.000Z,61.97
2023-04-10T01:38:40.000Z,61.97
2023-04-10T01:39:39.000Z,62.26
2023-04-10T01:40:37.000Z,62.37
2023-04-10T01:41:39.000Z,62.32
2023-04-10T01:42:42.000Z,62.19
2023-04-10T01:43:38.000Z,62.17
2023-04-10T01:44:40.000Z,62.63
2023-04-10T01:45:37.000Z,62.08
2023-04-10T01:46:37.000Z,62.88
2023-04-10T01:47:35.000Z,62.70
2023-04-10T01:48:36.000Z,62.91
2023-04-10T01:49:38.000Z,62.50
2023-04-10T01:50:36.000Z,62.66
2023-04-10T01:51:35.000Z,62.47
2023-04-10T01:52:36.000Z,62.96
2023-04-10T01:53:37.000Z,62.72
2023-04-10T01:54:35.000Z,62.87
2023-04-10T01:55:36.000Z,63.12
2023-04-10T01:56:36.000Z,63.34
2023-04-10T01:57:36.000Z,62.97
2023-04-10T01:58:36.000Z,63.43
2023-04-10T01:59:38.000Z,63.01
2023-04-10T02:00:37.000Z,63.17
2023-04-10T02:01:36.000Z,63.51
2023-04-10T02:02:36.000Z,63.37
2023-04-10T02:03:36.000Z,63.52
2023-04-10T02:04:36.000Z,63.59
2023-04-10T02:05:46.000Z,63.26
2023-04-10T02:06:50.000Z,63.87
2023-04-10T02:07:45.000Z,63.67
2023-04-10T02:08:44.000Z,63.83
2023-04-10T02:09:56.000Z,63.58
2023-04-10T02:10:43.000Z,63.71
2023-04-10T02:11:43.000Z,63.93
2023-04-10T02:12:45.000Z,64.13
2023-04-10T02:13:39.000Z,63.97
2023-04-10T02:14:40.000Z,64.10
2023-04-10T02:15:41.000Z,64.65
2023-04-10T02:16:37.000Z,64.50
2023-04-10T02:17:38.000Z,64.81
2023-04-10T02:18:37.000Z,64.14
2023-04-10T02:19:38.000Z,64.27
2023-04-10T02:20:36.000Z,64.40
2023-04-10T02:21:37.000Z,64.84
2023-04-10T02:22:36.000Z,64.86
2023-04-10T02:23:36.000Z,65.01
2023-04-10T02:24:36.000Z,65.20
2023-04-10T02:25:36.000Z,64.95
2023-04-10T02:26:47.000Z,65.05
2023-04-10T02:27:36.000Z,64.68
2023-04-10T02:28:38.000Z,65.30
2023-04-10T02:29:35.000Z,65.28
2023-04-10T02:30:35.000Z,65.34
2023-04-10T02:31:35.000Z,65.38
2023-04-10T02:32:35.000Z,64.99
2023-04-10T02:33:35.000Z,65.31
2023-04-10T02:34:35.000Z,65.36
2023-04-10T02:35:35.000Z,65.58
2023-04-10T02:36:36.000Z,65.59
2023-04-10T02:37:35.000Z,65.45
2023-04-10T02:38:35.000Z,65.66
2023-04-10T02:39:35.000Z,65.52
2023-04-10T02:40:35.000Z,65.24
2023-04-10T02:41:35.000Z,65.53
2023-04-10T02:42:35.000Z,65.67
2023-04-10T02:43:35.000Z,65.69
2023-04-10T02:44:35.000Z,65.83
2023-04-10T02:45:35.000Z,65.76
2023-04-10T02:46:35.000Z,65.78
2023-04-10T02:47:35.000Z,65.73
2023-04-10T02:48:35.000Z,65.76
2023-04-10T02:49:35.000Z,65.77
2023-04-10T02:50:35.000Z,65.53
2023-04-10T02:51:35.000Z,65.65
2023-04-10T02:52:35.000Z,65.68
2023-04-10T02:53:37.000Z,65.87
2023-04-10T02:54:35.000Z,65.82
2023-04-10T02:55:35.000Z,65.84
2023-04-10T02:56:35.000Z,65.96
2023-04-10T02:57:35.000Z,65.97
2023-04-10T02:58:36.000Z,65.99
2023-04-10T02:59:36.000Z,65.89
2023-04-10T03:00:36.000Z,66.19
2023-04-10T03:01:38.000Z,66.04
2023-04-10T03:02:36.000Z,65.92
2023-04-10T03:03:35.000Z,65.89
2023-04-10T03:04:36.000Z,66.02
2023-04-10T03:05:36.000Z,66.25
2023-04-10T03:06:35.000Z,66.13
2023-04-10T03:07:36.000Z,66.21
2023-04-10T03:08:35.000Z,66.14
2023-04-10T03:09:36.000Z,66.40
2023-04-10T03:10:35.000Z,66.47
2023-04-10T03:11:35.000Z,66.53
2023-04-10T03:12:36.000Z,66.41
2023-04-10T03:13:35.000Z,66.60
2023-04-10T03:14:35.000Z,66.50
2023-04-10T03:15:36.000Z,66.47
2023-04-10T03:16:36.000Z,66.44
2023-04-10T03:17:35.000Z,66.43
2023-04-10T03:18:35.000Z,66.38
2023-04-10T03:19:35.000Z,66.62
2023-04-10T03:20:36.000Z,66.68
2023-04-10T03:21:35.000Z,66.74
2023-04-10T03:22:35.000Z,66.65
2023-04-10T03:23:36.000Z,66.71
2023-04-10T03:24:37.000Z,66.77
2023-04-10T03:25:36.000Z,66.80
2023-04-10T03:26:35.000Z,66.93
2023-04-10T03:27:36.000Z,66.56
2023-04-10T03:28:36.000Z,66.90
2023-04-10T03:29:36.000Z,66.99
2023-04-10T03:30:36.000Z,66.96
2023-04-10T03:31:36.000Z,67.03
2023-04-10T03:32:36.000Z,66.95
2023-04-10T03:33:36.000Z,66.99
2023-04-10T03:34:36.000Z,66.96
2023-04-10T03:35:36.000Z,67.09
2023-04-10T03:36:36.000Z,67.13
2023-04-10T03:37:36.000Z,66.98
2023-04-10T03:38:36.000Z,66.98
2023-04-10T03:39:36.000Z,66.96
2023-04-10T03:40:36.000Z,67.14
2023-04-10T03:41:36.000Z,67.07
2023-04-10T03:42:36.000Z,67.26
2023-04-10T03:43:36.000Z,67.25
2023-04-10T03:44:37.000Z,67.13
2023-04-10T03:45:36.000Z,67.22
2023-04-10T03:46:36.000Z,67.22
2023-04-10T03:47:36.000Z,67.41
2023-04-10T03:48:36.000Z,67.21
2023-04-10T03:49:36.000Z,67.30
2023-04-10T03:50:36.000Z,67.31
2023-04-10T03:51:36.000Z,67.37
2023-04-10T03:52:36.000Z,67.22
2023-04-10T03:53:36.000Z,66.91
2023-04-10T03:54:36.000Z,66.90
2023-04-10T03:55:37.000Z,67.20
2023-04-10T03:56:36.000Z,67.11
2023-04-10T03:57:36.000Z,66.95
2023-04-10T03:58:36.000Z,67.22
2023-04-10T03:59:36.000Z,67.19
2023-04-10T04:00:36.000Z,67.01
2023-04-10T04:01:36.000Z,67.32
2023-04-10T04:02:36.000Z,67.17
2023-04-10T04:03:36.000Z,67.32
2023-04-10T04:04:36.000Z,67.16
2023-04-10T04:05:36.000Z,67.08
2023-04-10T04:06:36.000Z,67.19
2023-04-10T04:07:36.000Z,67.25
2023-04-10T04:08:37.000Z,67.01
2023-04-10T04:09:36.000Z,66.98
2023-04-10T04:10:36.000Z,67.66
2023-04-10T04:11:37.000Z,67.30
2023-04-10T04:12:36.000Z,67.27
2023-04-10T04:13:36.000Z,66.98
2023-04-10T04:14:36.000Z,66.95
2023-04-10T04:15:36.000Z,66.82
2023-04-10T04:16:36.000Z,67.17
2023-04-10T04:17:36.000Z,66.82
2023-04-10T04:18:36.000Z,66.77
2023-04-10T04:19:36.000Z,67.37
2023-04-10T04:20:36.000Z,67.37
2023-04-10T04:21:35.000Z,67.62
2023-04-10T04:22:36.000Z,67.59
2023-04-10T04:23:35.000Z,67.84
2023-04-10T04:24:36.000Z,67.60
2023-04-10T04:25:36.000Z,67.64
2023-04-10T04:26:36.000Z,68.11
2023-04-10T04:27:36.000Z,67.95
2023-04-10T04:28:36.000Z,68.19
2023-04-10T04:29:35.000Z,68.31
2023-04-10T04:30:35.000Z,68.32
2023-04-10T04:31:36.000Z,68.49
2023-04-10T04:32:35.000Z,68.55
2023-04-10T04:33:35.000Z,68.34
2023-04-10T04:34:35.000Z,68.51
2023-04-10T04:35:35.000Z,68.49
2023-04-10T04:36:35.000Z,68.19
2023-04-10T04:37:35.000Z,68.55
2023-04-10T04:38:36.000Z,68.64
2023-04-10T04:39:35.000Z,68.27
2023-04-10T04:40:35.000Z,68.28
2023-04-10T04:41:35.000Z,68.11
2023-04-10T04:42:36.000Z,68.70
2023-04-10T04:43:35.000Z,68.56
2023-04-10T04:44:35.000Z,68.48
2023-04-10T04:45:35.000Z,68.26
2023-04-10T04:46:35.000Z,68.50
2023-04-10T04:47:35.000Z,68.40
2023-04-10T04:48:35.000Z,68.09
2023-04-10T04:49:35.000Z,68.11
2023-04-10T04:50:39.000Z,68.23
2023-04-10T04:51:37.000Z,68.27
2023-04-10T04:52:36.000Z,68.57
2023-04-10T04:53:36.000Z,68.64
2023-04-10T04:54:35.000Z,68.53
2023-04-10T04:55:36.000Z,68.39
2023-04-10T04:56:35.000Z,68.27
2023-04-10T04:57:35.000Z,68.64
2023-04-10T04:58:36.000Z,68.43
2023-04-10T04:59:37.000Z,68.22
2023-04-10T05:00:36.000Z,68.22
2023-04-10T05:01:35.000Z,68.25
2023-04-10T05:02:35.000Z,68.42
2023-04-10T05:03:35.000Z,68.31
2023-04-10T05:04:35.000Z,68.26
2023-04-10T05:05:35.000Z,68.06
2023-04-10T05:06:36.000Z,67.86
2023-04-10T05:07:36.000Z,67.89
2023-04-10T05:08:38.000Z,68.12
2023-04-10T05:09:35.000Z,67.92
2023-04-10T05:10:35.000Z,67.96
2023-04-10T05:11:35.000Z,67.76
2023-04-10T05:12:36.000Z,67.77
2023-04-10T05:13:35.000Z,67.57
2023-04-10T05:14:35.000Z,67.73
2023-04-10T05:15:35.000Z,67.61
2023-04-10T05:16:35.000Z,67.56
2023-04-10T05:17:35.000Z,67.57
2023-04-10T05:18:36.000Z,67.38
2023-04-10T05:19:36.000Z,67.43
2023-04-10T05:20:36.000Z,67.44
2023-04-10T05:21:36.000Z,67.50
2023-04-10T05:22:35.000Z,67.47
2023-04-10T05:23:35.000Z,67.62
2023-04-10T05:24:36.000Z,67.55
2023-04-10T05:25:35.000Z,67.60
2023-04-10T05:26:36.000Z,67.61
2023-04-10T05:27:36.000Z,67.45
2023-04-10T05:28:35.000Z,67.62
2023-04-10T05:29:35.000Z,67.56
2023-04-10T05:30:35.000Z,67.49
2023-04-10T05:31:34.000Z,67.42
2023-04-10T05:32:35.000Z,67.43
2023-04-10T05:33:35.000Z,67.32
2023-04-10T05:34:35.000Z,67.17
2023-04-10T05:35:35.000Z,67.33
2023-04-10T05:36:35.000Z,67.51
2023-04-10T05:37:35.000Z,67.54
2023-04-10T05:38:34.000Z,67.34
2023-04-10T05:39:34.000Z,67.45
2023-04-10T05:40:34.000Z,67.31
2023-04-10T05:41:34.000Z,67.28
2023-04-10T05:42:35.000Z,67.57
2023-04-10T05:43:34.000Z,67.46
2023-04-10T05:44:34.000Z,67.62
2023-04-10T05:45:34.000Z,67.24
2023-04-10T05:46:34.000Z,67.48
2023-04-10T05:47:35.000Z,67.39
2023-04-10T05:48:35.000Z,67.28
2023-04-10T05:49:34.000Z,67.37
2023-04-10T05:50:35.000Z,67.33
2023-04-10T05:51:34.000Z,67.44
2023-04-10T05:52:35.000Z,67.35
2023-04-10T05:53:35.000Z,67.42
2023-04-10T05:54:35.000Z,67.45
2023-04-10T05:55:35.000Z,67.36
2023-04-10T05:56:34.000Z,67.30
2023-04-10T05:57:34.000Z,67.46
2023-04-10T05:58:35.000Z,67.36
2023-04-10T05:59:34.000Z,67.50
2023-04-10T06:00:35.000Z,67.34
2023-04-10T06:01:35.000Z,67.36
2023-04-10T06:02:35.000Z,67.36
2023-04-10T06:03:35.000Z,67.22
2023-04-10T06:04:35.000Z,67.39
2023-04-10T06:05:35.000Z,67.47
2023-04-10T06:06:35.000Z,67.36
2023-04-10T06:07:36.000Z,67.25
2023-04-10T06:08:35.000Z,67.43
2023-04-10T06:09:35.000Z,67.42
2023-04-10T06:10:35.000Z,67.36
2023-04-10T06:11:35.000Z,67.36
2023-04-10T06:12:35.000Z,67.18
2023-04-10T06:13:35.000Z,66.95
2023-04-10T06:14:35.000Z,66.90
2023-04-10T06:15:35.000Z,67.02
2023-04-10T06:16:35.000Z,66.93
2023-04-10T06:17:41.000Z,67.03
2023-04-10T06:18:36.000Z,66.92
2023-04-10T06:19:35.000Z,66.89
2023-04-10T06:20:35.000Z,66.91
2023-04-10T06:21:35.000Z,67.03
2023-04-10T06:22:35.000Z,66.69
2023-04-10T06:23:36.000Z,66.82
2023-04-10T06:24:35.000Z,66.89
2023-04-10T06:25:36.000Z,66.68
2023-04-10T06:26:36.000Z,66.81
2023-04-10T06:27:35.000Z,66.59
2023-04-10T06:28:36.000Z,66.44
2023-04-10T06:29:35.000Z,66.52
2023-04-10T06:30:37.000Z,66.63
2023-04-10T06:31:35.000Z,66.54
2023-04-10T06:32:35.000Z,66.42
2023-04-10T06:33:35.000Z,66.30
2023-04-10T06:34:35.000Z,66.47
2023-04-10T06:35:35.000Z,66.17
2023-04-10T06:36:35.000Z,66.14
2023-04-10T06:37:35.000Z,66.12
2023-04-10T06:38:36.000Z,66.30
2023-04-10T06:39:35.000Z,66.29
2023-04-10T06:40:35.000Z,66.34
2023-04-10T06:41:35.000Z,66.07
2023-04-10T06:42:35.000Z,66.46
2023-04-10T06:43:37.000Z,66.23
2023-04-10T06:44:35.000Z,66.16
2023-04-10T06:45:35.000Z,66.47
2023-04-10T06:46:35.000Z,66.22
2023-04-10T06:47:35.000Z,65.88
2023-04-10T06:48:35.000Z,66.00
2023-04-10T06:49:35.000Z,65.91
2023-04-10T06:50:35.000Z,65.63
2023-04-10T06:51:35.000Z,66.25
2023-04-10T06:52:35.000Z,65.68
2023-04-10T06:53:35.000Z,65.76
2023-04-10T06:54:35.000Z,65.74
2023-04-10T06:55:35.000Z,65.16
2023-04-10T06:56:35.000Z,65.24
2023-04-10T06:57:35.000Z,65.25
2023-04-10T06:58:35.000Z,65.32
2023-04-10T06:59:35.000Z,65.35
2023-04-10T07:00:35.000Z,64.54
2023-04-10T07:01:35.000Z,64.64
2023-04-10T07:02:34.000Z,64.58
2023-04-10T07:03:34.000Z,64.97
2023-04-10T07:04:34.000Z,64.87
2023-04-10T07:05:34.000Z,64.75
2023-04-10T07:06:34.000Z,64.80
2023-04-10T07:07:35.000Z,64.52
2023-04-10T07:08:34.000Z,64.06
2023-04-10T07:09:34.000Z,64.48
2023-04-10T07:10:35.000Z,64.16
2023-04-10T07:11:34.000Z,63.81
2023-04-10T07:12:34.000Z,63.81
2023-04-10T07:13:37.000Z,63.69
2023-04-10T07:14:34.000Z,63.60
2023-04-10T07:15:34.000Z,63.58
2023-04-10T07:16:35.000Z,63.58
2023-04-10T07:17:34.000Z,63.78
2023-04-10T07:18:36.000Z,63.71
2023-04-10T07:19:36.000Z,63.49
2023-04-10T07:20:35.000Z,63.13
2023-04-10T07:21:35.000Z,62.36
2023-04-10T07:22:34.000Z,63.01
2023-04-10T07:23:35.000Z,62.71
2023-04-10T07:24:34.000Z,62.49
2023-04-10T07:25:41.000Z,62.57
2023-04-10T07:26:35.000Z,62.51
2023-04-10T07:27:35.000Z,62.88
2023-04-10T07:28:36.000Z,62.45
2023-04-10T07:29:34.000Z,61.95
2023-04-10T07:30:35.000Z,61.21
2023-04-10T07:31:34.000Z,61.49
2023-04-10T07:32:35.000Z,61.57
2023-04-10T07:33:36.000Z,61.89
2023-04-10T07:34:35.000Z,61.87
2023-04-10T07:35:35.000Z,61.60
2023-04-10T07:36:35.000Z,61.99
2023-04-10T07:37:35.000Z,62.09
2023-04-10T07:38:36.000Z,62.14
2023-04-10T07:39:35.000Z,61.86
2023-04-10T07:40:35.000Z,61.65
2023-04-10T07:41:35.000Z,61.51
2023-04-10T07:42:35.000Z,60.99
2023-04-10T07:43:35.000Z,60.62
2023-04-10T07:44:35.000Z,60.49
2023-04-10T07:45:35.000Z,60.51
2023-04-10T07:46:35.000Z,60.49
2023-04-10T07:47:35.000Z,60.46
2023-04-10T07:48:35.000Z,60.28
2023-04-10T07:49:35.000Z,60.29
2023-04-10T07:50:35.000Z,60.16
2023-04-10T07:51:35.000Z,60.19
2023-04-10T07:52:35.000Z,60.17
2023-04-10T07:53:35.000Z,59.83
2023-04-10T07:54:35.000Z,60.41
2023-04-10T07:55:40.000Z,60.12
2023-04-10T07:56:35.000Z,59.93
2023-04-10T07:57:35.000Z,59.57
2023-04-10T07:58:35.000Z,59.21
2023-04-10T07:59:35.000Z,59.56
2023-04-10T08:00:35.000Z,59.23
2023-04-10T08:01:35.000Z,58.70
2023-04-10T08:02:35.000Z,58.52
2023-04-10T08:03:43.000Z,58.55
2023-04-10T08:04:35.000Z,58.70
2023-04-10T08:05:36.000Z,58.22
2023-04-10T08:06:35.000Z,58.27
2023-04-10T08:07:36.000Z,57.66
2023-04-10T08:08:40.000Z,57.76
2023-04-10T08:09:35.000Z,57.92
2023-04-10T08:10:37.000Z,57.15
2023-04-10T08:11:36.000Z,56.93
2023-04-10T08:12:35.000Z,57.09
2023-04-10T08:13:35.000Z,57.20
2023-04-10T08:14:35.000Z,57.28
2023-04-10T08:15:35.000Z,56.81
2023-04-10T08:16:35.000Z,56.54
2023-04-10T08:17:36.000Z,56.36
2023-04-10T08:18:35.000Z,56.26
2023-04-10T08:19:35.000Z,56.35
2023-04-10T08:20:36.000Z,56.64
2023-04-10T08:21:35.000Z,56.88
2023-04-10T08:22:35.000Z,56.67
2023-04-10T08:23:35.000Z,56.27
2023-04-10T08:24:35.000Z,56.23
2023-04-10T08:25:35.000Z,56.41
2023-04-10T08:26:35.000Z,56.66
2023-04-10T08:27:36.000Z,56.33
2023-04-10T08:28:35.000Z,56.03
2023-04-10T08:29:35.000Z,55.49
2023-04-10T08:30:35.000Z,55.60
2023-04-10T08:31:36.000Z,55.33
2023-04-10T08:32:37.000Z,55.42
2023-04-10T08:33:35.000Z,55.45
2023-04-10T08:34:35.000Z,54.63
2023-04-10T08:35:34.000Z,54.68
2023-04-10T08:36:34.000Z,55.00
2023-04-10T08:37:35.000Z,55.08
2023-04-10T08:38:35.000Z,54.94
2023-04-10T08:39:34.000Z,54.59
2023-04-10T08:40:35.000Z,54.85
2023-04-10T08:41:34.000Z,54.77
2023-04-10T08:42:35.000Z,54.66
2023-04-10T08:43:34.000Z,54.32
2023-04-10T08:44:35.000Z,54.62
2023-04-10T08:45:35.000Z,54.64
2023-04-10T08:46:40.000Z,54.80
2023-04-10T08:47:39.000Z,54.51
2023-04-10T08:48:59.000Z,54.25
2023-04-10T08:49:42.000Z,54.28
2023-04-10T08:50:39.000Z,54.24
2023-04-10T08:51:44.000Z,54.21
2023-04-10T08:52:40.000Z,54.42
2023-04-10T08:53:42.000Z,54.69
2023-04-10T08:54:36.000Z,54.92
2023-04-10T08:55:35.000Z,55.20
2023-04-10T08:56:37.000Z,53.90
2023-04-10T08:57:36.000Z,53.17
2023-04-10T08:58:35.000Z,52.72
2023-04-10T08:59:35.000Z,53.49
2023-04-10T09:00:36.000Z,53.12
2023-04-10T09:01:35.000Z,53.04
2023-04-10T09:02:37.000Z,50.91
2023-04-10T09:03:35.000Z,50.96
2023-04-10T09:04:34.000Z,50.28
2023-04-10T09:05:35.000Z,49.57
2023-04-10T09:06:35.000Z,49.82
2023-04-10T09:07:35.000Z,49.27
2023-04-10T09:08:35.000Z,49.41
2023-04-10T09:09:35.000Z,49.60
2023-04-10T09:10:35.000Z,49.11
2023-04-10T09:11:45.000Z,49.42
2023-04-10T09:12:44.000Z,49.89
2023-04-10T09:13:38.000Z,49.40
2023-04-10T09:14:35.000Z,49.10
2023-04-10T09:15:45.000Z,48.98
2023-04-10T09:16:35.000Z,48.90
2023-04-10T09:17:35.000Z,48.56
2023-04-10T09:18:45.000Z,47.99
2023-04-10T09:19:35.000Z,48.07
2023-04-10T09:20:35.000Z,48.43
2023-04-10T09:21:35.000Z,47.61
2023-04-10T09:22:35.000Z,48.02
2023-04-10T09:23:35.000Z,47.59
2023-04-10T09:24:40.000Z,47.94
2023-04-10T09:25:36.000Z,46.98
2023-04-10T09:26:35.000Z,46.47
2023-04-10T09:27:35.000Z,47.35
2023-04-10T09:28:55.000Z,47.14
2023-04-10T09:29:44.000Z,46.89
2023-04-10T09:30:40.000Z,46.88
2023-04-10T09:31:36.000Z,47.30
2023-04-10T09:32:44.000Z,46.86
2023-04-10T09:33:35.000Z,46.54
2023-04-10T09:34:51.000Z,46.78
2023-04-10T09:35:36.000Z,46.73
2023-04-10T09:36:41.000Z,46.67
2023-04-10T09:37:40.000Z,47.39
2023-04-10T09:38:35.000Z,47.38
2023-04-10T09:39:37.000Z,47.32
2023-04-10T09:40:35.000Z,46.74
2023-04-10T09:41:45.000Z,46.69
2023-04-10T09:42:38.000Z,46.66
2023-04-10T09:43:35.000Z,46.89
2023-04-10T09:44:37.000Z,47.22
2023-04-10T09:45:45.000Z,46.61
2023-04-10T09:46:35.000Z,46.52
2023-04-10T09:47:36.000Z,46.89
2023-04-10T09:48:35.000Z,46.74
2023-04-10T09:49:43.000Z,46.39
2023-04-10T09:50:39.000Z,45.83
2023-04-10T09:51:35.000Z,46.82
2023-04-10T09:52:36.000Z,47.06
2023-04-10T09:53:47.000Z,47.49
2023-04-10T09:54:38.000Z,47.22
2023-04-10T09:55:36.000Z,45.61
2023-04-10T09:56:37.000Z,46.32
2023-04-10T09:57:35.000Z,46.05
2023-04-10T09:58:36.000Z,46.54
2023-04-10T09:59:37.000Z,45.96
2023-04-10T10:00:42.000Z,45.87
2023-04-10T10:01:38.000Z,46.00
2023-04-10T10:02:36.000Z,45.40
2023-04-10T10:03:37.000Z,45.89
2023-04-10T10:04:36.000Z,46.18
2023-04-10T10:05:38.000Z,45.83
2023-04-10T10:06:36.000Z,45.54
2023-04-10T10:07:36.000Z,45.96
2023-04-10T10:08:35.000Z,45.88
2023-04-10T10:09:35.000Z,45.32
2023-04-10T10:10:38.000Z,46.06
2023-04-10T10:11:35.000Z,45.86
2023-04-10T10:12:45.000Z,45.31
2023-04-10T10:13:44.000Z,45.75
2023-04-10T10:14:52.000Z,45.19
2023-04-10T10:15:44.000Z,44.70
2023-04-10T10:16:42.000Z,45.37
2023-04-10T10:17:41.000Z,45.25
2023-04-10T10:18:43.000Z,44.89
2023-04-10T10:19:49.000Z,45.25
2023-04-10T10:20:36.000Z,45.73
2023-04-10T10:21:36.000Z,44.66
2023-04-10T10:22:38.000Z,45.19
2023-04-10T10:23:36.000Z,44.57
2023-04-10T10:24:38.000Z,44.06
2023-04-10T10:25:37.000Z,44.46
2023-04-10T10:26:37.000Z,45.06
2023-04-10T10:27:36.000Z,45.11
2023-04-10T10:28:36.000Z,44.50
2023-04-10T10:29:36.000Z,44.49
2023-04-10T10:30:35.000Z,44.73
2023-04-10T10:31:36.000Z,44.61
2023-04-10T10:32:35.000Z,45.13
2023-04-10T10:33:36.000Z,45.00
2023-04-10T10:34:35.000Z,44.78
2023-04-10T10:35:35.000Z,44.89
2023-04-10T10:36:35.000Z,44.25
2023-04-10T10:37:35.000Z,44.13
2023-04-10T10:38:42.000Z,44.21
2023-04-10T10:39:58.000Z,44.46
2023-04-10T10:40:43.000Z,44.27
2023-04-10T10:41:47.000Z,43.56
2023-04-10T10:42:42.000Z,43.43
2023-04-10T10:43:57.000Z,43.18
2023-04-10T10:44:43.000Z,43.09
2023-04-10T10:45:56.000Z,44.03
2023-04-10T10:46:42.000Z,45.08
2023-04-10T10:47:42.000Z,43.83
2023-04-10T10:48:35.000Z,43.85
2023-04-10T10:49:45.000Z,44.13
2023-04-10T10:50:48.000Z,43.84
2023-04-10T10:51:45.000Z,43.29
2023-04-10T10:52:45.000Z,43.31
2023-04-10T10:53:41.000Z,43.17
2023-04-10T10:54:35.000Z,42.48
2023-04-10T10:55:35.000Z,42.94
2023-04-10T10:56:35.000Z,43.90
2023-04-10T10:57:44.000Z,43.28
2023-04-10T10:58:45.000Z,42.69
2023-04-10T10:59:45.000Z,42.59
2023-04-10T11:00:45.000Z,41.21
2023-04-10T11:01:35.000Z,41.32
2023-04-10T11:02:35.000Z,40.89
2023-04-10T11:03:36.000Z,40.59
2023-04-10T11:04:40.000Z,39.77
2023-04-10T11:05:45.000Z,39.24
2023-04-10T11:06:49.000Z,39.06
2023-04-10T11:07:45.000Z,39.70
2023-04-10T11:08:43.000Z,40.48
2023-04-10T11:09:58.000Z,40.31
2023-04-10T11:10:45.000Z,40.37
2023-04-10T11:11:55.000Z,39.91
2023-04-10T11:12:55.000Z,39.85
2023-04-10T11:13:37.000Z,39.89
2023-04-10T11:14:36.000Z,40.15
2023-04-10T11:15:35.000Z,41.04
2023-04-10T11:16:45.000Z,40.07
2023-04-10T11:17:45.000Z,39.53
2023-04-10T11:18:58.000Z,39.58
2023-04-10T11:19:45.000Z,39.91
2023-04-10T11:20:55.000Z,40.26
2023-04-10T11:21:55.000Z,40.43
2023-04-10T11:22:55.000Z,38.36
2023-04-10T11:23:41.000Z,39.81
2023-04-10T11:24:45.000Z,39.59
2023-04-10T11:25:45.000Z,38.97
2023-04-10T11:26:41.000Z,39.30
2023-04-10T11:27:41.000Z,39.50
2023-04-10T11:28:36.000Z,39.19
2023-04-10T11:29:35.000Z,39.97
2023-04-10T11:30:35.000Z,40.20
2023-04-10T11:31:35.000Z,40.14
2023-04-10T11:32:41.000Z,39.81
2023-04-10T11:33:36.000Z,38.66
2023-04-10T11:34:42.000Z,38.98
2023-04-10T11:35:35.000Z,38.38
2023-04-10T11:36:39.000Z,38.15
2023-04-10T11:37:35.000Z,37.72
2023-04-10T11:38:36.000Z,37.43
2023-04-10T11:39:35.000Z,38.40
2023-04-10T11:40:50.000Z,38.32
2023-04-10T11:41:37.000Z,38.40
2023-04-10T11:42:35.000Z,38.12
2023-04-10T11:43:35.000Z,36.90
2023-04-10T11:44:35.000Z,37.61
2023-04-10T11:45:35.000Z,38.44
2023-04-10T11:46:37.000Z,38.85
2023-04-10T11:47:35.000Z,38.15
2023-04-10T11:48:36.000Z,38.54
2023-04-10T11:49:36.000Z,37.59
2023-04-10T11:50:35.000Z,37.88
2023-04-10T11:51:37.000Z,38.19
2023-04-10T11:52:40.000Z,38.41
2023-04-10T11:53:36.000Z,37.97
2023-04-10T11:54:36.000Z,37.56
2023-04-10T11:55:37.000Z,37.98
2023-04-10T11:56:39.000Z,38.35
2023-04-10T11:57:35.000Z,37.76
2023-04-10T11:58:36.000Z,38.21
2023-04-10T11:59:35.000Z,37.58
2023-04-10T12:00:35.000Z,37.05
2023-04-10T12:01:36.000Z,36.43
2023-04-10T12:02:51.000Z,37.51
2023-04-10T12:03:44.000Z,37.38
2023-04-10T12:04:36.000Z,36.54
2023-04-10T12:05:45.000Z,37.49
2023-04-10T12:06:35.000Z,37.06
2023-04-10T12:07:35.000Z,37.95
2023-04-10T12:08:41.000Z,37.69
2023-04-10T12:09:35.000Z,36.36
2023-04-10T12:10:52.000Z,35.97
2023-04-10T12:11:35.000Z,36.86
2023-04-10T12:12:35.000Z,36.19
2023-04-10T12:13:36.000Z,35.29
2023-04-10T12:14:37.000Z,35.87
2023-04-10T12:15:37.000Z,36.01
2023-04-10T12:16:35.000Z,36.62
2023-04-10T12:17:35.000Z,37.24
2023-04-10T12:18:35.000Z,36.66
2023-04-10T12:19:37.000Z,36.09
2023-04-10T12:20:35.000Z,36.47
2023-04-10T12:21:35.000Z,36.35
2023-04-10T12:22:35.000Z,36.42
2023-04-10T12:23:36.000Z,37.38
2023-04-10T12:24:44.000Z,36.37
2023-04-10T12:25:35.000Z,36.95
2023-04-10T12:26:35.000Z,35.84
2023-04-10T12:27:35.000Z,36.12
2023-04-10T12:28:36.000Z,36.16
2023-04-10T12:29:35.000Z,35.96
2023-04-10T12:30:35.000Z,36.06
2023-04-10T12:31:35.000Z,34.57
2023-04-10T12:32:35.000Z,34.62
2023-04-10T12:33:35.000Z,33.93
2023-04-10T12:34:35.000Z,33.90
2023-04-10T12:35:39.000Z,35.10
2023-04-10T12:36:35.000Z,33.77
2023-04-10T12:37:45.000Z,33.60
2023-04-10T12:38:42.000Z,33.60
2023-04-10T12:39:34.000Z,34.05
2023-04-10T12:40:36.000Z,33.54
2023-04-10T12:41:35.000Z,33.77
2023-04-10T12:42:38.000Z,34.64
2023-04-10T12:43:37.000Z,34.55
2023-04-10T12:44:48.000Z,35.64
2023-04-10T12:45:41.000Z,35.40
2023-04-10T12:46:35.000Z,35.14
2023-04-10T12:47:43.000Z,35.36
2023-04-10T12:48:35.000Z,34.67
2023-04-10T12:49:35.000Z,34.89
2023-04-10T12:50:45.000Z,36.76
2023-04-10T12:51:40.000Z,35.94
2023-04-10T12:52:36.000Z,35.36